sensor_id;sensor_type;location;lat;lon;timestamp;P1;durP1;ratioP1;P2;durP2;ratioP2
22768;SDS011;13001;51.968;5.918;2022-12-18T00:01:18;899.90;;;833.23;;
22768;SDS011;13001;51.968;5.918;2022-12-18T00:03:42;906.70;;;839.78;;
22768;SDS011;13001;51.968;5.918;2022-12-18T00:06:09;914.05;;;845.83;;
22768;SDS011;13001;51.968;5.918;2022-12-18T00:08:36;892.47;;;824.38;;
22768;SDS011;13001;51.968;5.918;2022-12-18T00:11:04;896.45;;;828.25;;
22768;SDS011;13001;51.968;5.918;2022-12-18T00:13:31;882.35;;;815.85;;
22768;SDS011;13001;51.968;5.918;2022-12-18T00:16:06;884.77;;;817.90;;
22768;SDS011;13001;51.968;5.918;2022-12-18T00:18:34;850.57;;;786.87;;
22768;SDS011;13001;51.968;5.918;2022-12-18T00:21:03;824.17;;;762.07;;
22768;SDS011;13001;51.968;5.918;2022-12-18T00:23:32;796.92;;;736.33;;
22768;SDS011;13001;51.968;5.918;2022-12-18T00:26:00;664.48;;;614.80;;
22768;SDS011;13001;51.968;5.918;2022-12-18T00:28:28;663.60;;;613.87;;
22768;SDS011;13001;51.968;5.918;2022-12-18T00:31:02;659.05;;;609.13;;
22768;SDS011;13001;51.968;5.918;2022-12-18T00:33:30;831.00;;;769.52;;
22768;SDS011;13001;51.968;5.918;2022-12-18T00:36:04;749.00;;;692.93;;
22768;SDS011;13001;51.968;5.918;2022-12-18T00:38:31;665.05;;;615.00;;
22768;SDS011;13001;51.968;5.918;2022-12-18T00:41:00;641.00;;;592.77;;
22768;SDS011;13001;51.968;5.918;2022-12-18T00:43:28;827.20;;;765.80;;
22768;SDS011;13001;51.968;5.918;2022-12-18T00:45:55;689.00;;;637.98;;
22768;SDS011;13001;51.968;5.918;2022-12-18T00:48:22;690.05;;;638.60;;
22768;SDS011;13001;51.968;5.918;2022-12-18T00:50:50;701.15;;;648.70;;
22768;SDS011;13001;51.968;5.918;2022-12-18T00:53:18;654.00;;;605.55;;
22768;SDS011;13001;51.968;5.918;2022-12-18T00:55:45;820.17;;;759.53;;
22768;SDS011;13001;51.968;5.918;2022-12-18T00:58:13;667.63;;;618.40;;
22768;SDS011;13001;51.968;5.918;2022-12-18T01:00:41;841.68;;;779.38;;
22768;SDS011;13001;51.968;5.918;2022-12-18T01:03:09;683.98;;;633.95;;
22768;SDS011;13001;51.968;5.918;2022-12-18T01:05:41;847.60;;;785.05;;
22768;SDS011;13001;51.968;5.918;2022-12-18T01:08:09;775.12;;;717.55;;
22768;SDS011;13001;51.968;5.918;2022-12-18T01:10:39;665.80;;;617.15;;
22768;SDS011;13001;51.968;5.918;2022-12-18T01:13:05;839.12;;;777.08;;
22768;SDS011;13001;51.968;5.918;2022-12-18T01:15:33;685.50;;;635.67;;
22768;SDS011;13001;51.968;5.918;2022-12-18T01:18:00;837.00;;;775.20;;
22768;SDS011;13001;51.968;5.918;2022-12-18T01:20:27;761.70;;;704.65;;
22768;SDS011;13001;51.968;5.918;2022-12-18T01:22:55;804.20;;;744.50;;
22768;SDS011;13001;51.968;5.918;2022-12-18T01:25:22;760.25;;;703.45;;
22768;SDS011;13001;51.968;5.918;2022-12-18T01:27:49;734.03;;;679.25;;
22768;SDS011;13001;51.968;5.918;2022-12-18T01:30:16;698.25;;;646.98;;
22768;SDS011;13001;51.968;5.918;2022-12-18T01:32:44;783.00;;;725.60;;
22768;SDS011;13001;51.968;5.918;2022-12-18T01:35:14;713.75;;;660.48;;
22768;SDS011;13001;51.968;5.918;2022-12-18T01:37:41;646.27;;;599.40;;
22768;SDS011;13001;51.968;5.918;2022-12-18T01:40:12;656.52;;;608.42;;
22768;SDS011;13001;51.968;5.918;2022-12-18T01:42:41;808.07;;;748.08;;
22768;SDS011;13001;51.968;5.918;2022-12-18T01:47:50;662.12;;;613.35;;
22768;SDS011;13001;51.968;5.918;2022-12-18T01:50:20;671.63;;;622.27;;
22768;SDS011;13001;51.968;5.918;2022-12-18T01:52:58;823.17;;;762.88;;
22768;SDS011;13001;51.968;5.918;2022-12-18T01:55:26;730.90;;;675.92;;
22768;SDS011;13001;51.968;5.918;2022-12-18T01:57:54;742.27;;;686.77;;
22768;SDS011;13001;51.968;5.918;2022-12-18T02:00:23;684.25;;;633.55;;
22768;SDS011;13001;51.968;5.918;2022-12-18T02:02:51;690.98;;;640.25;;
22768;SDS011;13001;51.968;5.918;2022-12-18T02:05:20;690.88;;;639.92;;
22768;SDS011;13001;51.968;5.918;2022-12-18T02:07:57;687.20;;;636.38;;
22768;SDS011;13001;51.968;5.918;2022-12-18T02:10:32;670.55;;;620.83;;
22768;SDS011;13001;51.968;5.918;2022-12-18T02:13:13;675.40;;;625.55;;
22768;SDS011;13001;51.968;5.918;2022-12-18T02:15:49;700.22;;;648.70;;
22768;SDS011;13001;51.968;5.918;2022-12-18T02:18:30;692.53;;;641.30;;
22768;SDS011;13001;51.968;5.918;2022-12-18T02:21:08;673.95;;;624.50;;
22768;SDS011;13001;51.968;5.918;2022-12-18T02:23:39;685.60;;;635.43;;
22768;SDS011;13001;51.968;5.918;2022-12-18T02:26:06;693.15;;;641.95;;
22768;SDS011;13001;51.968;5.918;2022-12-18T02:28:41;680.95;;;630.83;;
22768;SDS011;13001;51.968;5.918;2022-12-18T02:31:05;677.67;;;627.90;;
22768;SDS011;13001;51.968;5.918;2022-12-18T02:33:34;663.50;;;614.80;;
22768;SDS011;13001;51.968;5.918;2022-12-18T02:36:02;660.00;;;611.62;;
22768;SDS011;13001;51.968;5.918;2022-12-18T02:38:30;641.35;;;594.15;;
22768;SDS011;13001;51.968;5.918;2022-12-18T02:40:58;665.50;;;616.52;;
22768;SDS011;13001;51.968;5.918;2022-12-18T02:43:26;694.52;;;643.65;;
22768;SDS011;13001;51.968;5.918;2022-12-18T02:45:54;651.58;;;604.00;;
22768;SDS011;13001;51.968;5.918;2022-12-18T02:48:23;674.07;;;624.63;;
22768;SDS011;13001;51.968;5.918;2022-12-18T02:50:54;678.55;;;628.70;;
22768;SDS011;13001;51.968;5.918;2022-12-18T02:53:24;651.67;;;604.33;;
22768;SDS011;13001;51.968;5.918;2022-12-18T02:55:56;653.00;;;605.30;;
22768;SDS011;13001;51.968;5.918;2022-12-18T02:58:35;660.10;;;612.23;;
22768;SDS011;13001;51.968;5.918;2022-12-18T03:01:21;685.23;;;634.50;;
22768;SDS011;13001;51.968;5.918;2022-12-18T03:03:54;727.10;;;674.80;;
22768;SDS011;13001;51.968;5.918;2022-12-18T03:06:32;728.48;;;675.27;;
22768;SDS011;13001;51.968;5.918;2022-12-18T03:09:00;489.73;;;457.90;;
22768;SDS011;13001;51.968;5.918;2022-12-18T03:11:28;539.58;;;504.35;;
22768;SDS011;13001;51.968;5.918;2022-12-18T03:14:15;603.35;;;562.30;;
22768;SDS011;13001;51.968;5.918;2022-12-18T03:16:43;603.83;;;563.05;;
22768;SDS011;13001;51.968;5.918;2022-12-18T03:19:13;619.05;;;577.33;;
22768;SDS011;13001;51.968;5.918;2022-12-18T03:21:42;601.45;;;561.15;;
22768;SDS011;13001;51.968;5.918;2022-12-18T03:24:09;610.08;;;568.95;;
22768;SDS011;13001;51.968;5.918;2022-12-18T03:26:38;611.67;;;570.20;;
22768;SDS011;13001;51.968;5.918;2022-12-18T03:29:10;587.92;;;548.20;;
22768;SDS011;13001;51.968;5.918;2022-12-18T03:31:37;601.27;;;560.87;;
22768;SDS011;13001;51.968;5.918;2022-12-18T03:34:12;613.67;;;572.37;;
22768;SDS011;13001;51.968;5.918;2022-12-18T03:36:38;614.75;;;573.37;;
22768;SDS011;13001;51.968;5.918;2022-12-18T03:39:05;618.65;;;577.17;;
22768;SDS011;13001;51.968;5.918;2022-12-18T03:41:33;593.13;;;553.77;;
22768;SDS011;13001;51.968;5.918;2022-12-18T03:44:12;596.33;;;556.95;;
22768;SDS011;13001;51.968;5.918;2022-12-18T03:46:41;600.00;;;559.92;;
22768;SDS011;13001;51.968;5.918;2022-12-18T03:49:09;604.33;;;563.83;;
22768;SDS011;13001;51.968;5.918;2022-12-18T03:51:54;663.72;;;618.92;;
22768;SDS011;13001;51.968;5.918;2022-12-18T03:54:21;661.15;;;616.42;;
22768;SDS011;13001;51.968;5.918;2022-12-18T03:56:51;682.77;;;635.73;;
22768;SDS011;13001;51.968;5.918;2022-12-18T03:59:18;686.52;;;640.20;;
22768;SDS011;13001;51.968;5.918;2022-12-18T04:01:46;687.00;;;640.40;;
22768;SDS011;13001;51.968;5.918;2022-12-18T04:04:14;722.42;;;672.80;;
22768;SDS011;13001;51.968;5.918;2022-12-18T04:06:42;662.00;;;617.72;;
22768;SDS011;13001;51.968;5.918;2022-12-18T04:09:11;693.97;;;647.27;;
22768;SDS011;13001;51.968;5.918;2022-12-18T04:11:39;722.58;;;672.83;;
22768;SDS011;13001;51.968;5.918;2022-12-18T04:14:08;743.10;;;691.50;;
22768;SDS011;13001;51.968;5.918;2022-12-18T04:16:36;719.70;;;670.25;;
22768;SDS011;13001;51.968;5.918;2022-12-18T04:19:03;665.60;;;621.10;;
22768;SDS011;13001;51.968;5.918;2022-12-18T04:21:30;712.02;;;663.60;;
22768;SDS011;13001;51.968;5.918;2022-12-18T04:23:58;690.33;;;643.97;;
22768;SDS011;13001;51.968;5.918;2022-12-18T04:26:25;690.92;;;644.20;;
22768;SDS011;13001;51.968;5.918;2022-12-18T04:28:52;746.17;;;694.62;;
22768;SDS011;13001;51.968;5.918;2022-12-18T04:31:20;731.00;;;680.22;;
22768;SDS011;13001;51.968;5.918;2022-12-18T04:33:47;732.20;;;681.17;;
22768;SDS011;13001;51.968;5.918;2022-12-18T04:36:15;728.67;;;678.42;;
22768;SDS011;13001;51.968;5.918;2022-12-18T04:38:42;750.08;;;697.90;;
22768;SDS011;13001;51.968;5.918;2022-12-18T04:41:09;736.92;;;686.10;;
22768;SDS011;13001;51.968;5.918;2022-12-18T04:43:39;743.25;;;691.67;;
22768;SDS011;13001;51.968;5.918;2022-12-18T04:46:06;774.52;;;719.67;;
22768;SDS011;13001;51.968;5.918;2022-12-18T04:48:34;800.10;;;742.70;;
22768;SDS011;13001;51.968;5.918;2022-12-18T04:51:02;790.25;;;732.90;;
22768;SDS011;13001;51.968;5.918;2022-12-18T04:53:30;828.30;;;768.50;;
22768;SDS011;13001;51.968;5.918;2022-12-18T04:56:02;830.33;;;769.88;;
22768;SDS011;13001;51.968;5.918;2022-12-18T04:58:30;831.02;;;770.27;;
22768;SDS011;13001;51.968;5.918;2022-12-18T05:00:57;824.10;;;764.27;;
22768;SDS011;13001;51.968;5.918;2022-12-18T05:03:24;814.02;;;755.08;;
22768;SDS011;13001;51.968;5.918;2022-12-18T05:05:52;811.92;;;753.92;;
22768;SDS011;13001;51.968;5.918;2022-12-18T05:08:19;814.10;;;755.20;;
22768;SDS011;13001;51.968;5.918;2022-12-18T05:10:47;831.33;;;771.27;;
22768;SDS011;13001;51.968;5.918;2022-12-18T05:13:14;817.80;;;758.87;;
22768;SDS011;13001;51.968;5.918;2022-12-18T05:15:41;819.75;;;760.65;;
22768;SDS011;13001;51.968;5.918;2022-12-18T05:18:08;816.15;;;757.15;;
22768;SDS011;13001;51.968;5.918;2022-12-18T05:20:36;842.90;;;781.52;;
22768;SDS011;13001;51.968;5.918;2022-12-18T05:23:03;831.40;;;770.75;;
22768;SDS011;13001;51.968;5.918;2022-12-18T05:25:30;831.90;;;771.10;;
22768;SDS011;13001;51.968;5.918;2022-12-18T05:27:58;852.70;;;789.50;;
22768;SDS011;13001;51.968;5.918;2022-12-18T05:30:25;863.98;;;800.05;;
22768;SDS011;13001;51.968;5.918;2022-12-18T05:32:53;850.50;;;788.00;;
22768;SDS011;13001;51.968;5.918;2022-12-18T05:35:21;853.33;;;789.90;;
22768;SDS011;13001;51.968;5.918;2022-12-18T05:37:48;856.12;;;792.60;;
22768;SDS011;13001;51.968;5.918;2022-12-18T05:40:16;863.52;;;798.90;;
22768;SDS011;13001;51.968;5.918;2022-12-18T05:42:43;864.15;;;799.42;;
22768;SDS011;13001;51.968;5.918;2022-12-18T05:45:11;860.73;;;796.83;;
22768;SDS011;13001;51.968;5.918;2022-12-18T05:47:38;876.67;;;810.85;;
22768;SDS011;13001;51.968;5.918;2022-12-18T05:50:05;870.92;;;806.05;;
22768;SDS011;13001;51.968;5.918;2022-12-18T05:52:33;845.55;;;783.17;;
22768;SDS011;13001;51.968;5.918;2022-12-18T05:55:00;856.65;;;793.13;;
22768;SDS011;13001;51.968;5.918;2022-12-18T05:57:28;863.10;;;798.80;;
22768;SDS011;13001;51.968;5.918;2022-12-18T05:59:55;859.30;;;795.25;;
22768;SDS011;13001;51.968;5.918;2022-12-18T06:02:22;867.22;;;802.35;;
22768;SDS011;13001;51.968;5.918;2022-12-18T06:04:50;854.97;;;790.88;;
22768;SDS011;13001;51.968;5.918;2022-12-18T06:07:17;847.38;;;784.70;;
22768;SDS011;13001;51.968;5.918;2022-12-18T06:09:44;875.20;;;809.50;;
22768;SDS011;13001;51.968;5.918;2022-12-18T06:12:12;877.05;;;811.12;;
22768;SDS011;13001;51.968;5.918;2022-12-18T06:14:39;875.05;;;809.95;;
22768;SDS011;13001;51.968;5.918;2022-12-18T06:17:06;887.65;;;821.30;;
22768;SDS011;13001;51.968;5.918;2022-12-18T06:19:34;861.20;;;797.40;;
22768;SDS011;13001;51.968;5.918;2022-12-18T06:22:01;858.60;;;795.30;;
22768;SDS011;13001;51.968;5.918;2022-12-18T06:24:28;872.20;;;807.58;;
22768;SDS011;13001;51.968;5.918;2022-12-18T06:26:56;857.32;;;793.48;;
22768;SDS011;13001;51.968;5.918;2022-12-18T06:29:24;863.75;;;800.42;;
22768;SDS011;13001;51.968;5.918;2022-12-18T06:31:51;870.67;;;806.32;;
22768;SDS011;13001;51.968;5.918;2022-12-18T06:34:18;848.60;;;786.40;;
22768;SDS011;13001;51.968;5.918;2022-12-18T06:36:46;842.50;;;780.15;;
22768;SDS011;13001;51.968;5.918;2022-12-18T06:39:13;863.85;;;800.30;;
22768;SDS011;13001;51.968;5.918;2022-12-18T06:41:41;865.92;;;801.80;;
22768;SDS011;13001;51.968;5.918;2022-12-18T06:44:08;853.85;;;790.60;;
22768;SDS011;13001;51.968;5.918;2022-12-18T06:46:35;863.45;;;799.08;;
22768;SDS011;13001;51.968;5.918;2022-12-18T06:49:04;848.50;;;785.77;;
22768;SDS011;13001;51.968;5.918;2022-12-18T06:51:31;855.25;;;792.12;;
22768;SDS011;13001;51.968;5.918;2022-12-18T06:53:58;826.33;;;765.52;;
22768;SDS011;13001;51.968;5.918;2022-12-18T06:56:27;854.35;;;790.33;;
22768;SDS011;13001;51.968;5.918;2022-12-18T06:58:55;857.23;;;793.63;;
22768;SDS011;13001;51.968;5.918;2022-12-18T07:01:22;832.42;;;770.95;;
22768;SDS011;13001;51.968;5.918;2022-12-18T07:03:53;862.23;;;798.17;;
22768;SDS011;13001;51.968;5.918;2022-12-18T07:06:21;819.50;;;759.63;;
22768;SDS011;13001;51.968;5.918;2022-12-18T07:08:49;824.53;;;763.93;;
22768;SDS011;13001;51.968;5.918;2022-12-18T07:11:17;819.92;;;759.95;;
22768;SDS011;13001;51.968;5.918;2022-12-18T07:13:45;821.25;;;760.97;;
22768;SDS011;13001;51.968;5.918;2022-12-18T07:16:14;818.02;;;758.05;;
22768;SDS011;13001;51.968;5.918;2022-12-18T07:18:41;837.15;;;774.85;;
22768;SDS011;13001;51.968;5.918;2022-12-18T07:21:10;854.45;;;791.00;;
22768;SDS011;13001;51.968;5.918;2022-12-18T07:23:38;796.08;;;738.03;;
22768;SDS011;13001;51.968;5.918;2022-12-18T07:26:11;798.62;;;740.62;;
22768;SDS011;13001;51.968;5.918;2022-12-18T07:28:35;817.85;;;756.85;;
22768;SDS011;13001;51.968;5.918;2022-12-18T07:31:03;794.23;;;736.23;;
22768;SDS011;13001;51.968;5.918;2022-12-18T07:33:32;718.97;;;667.58;;
22768;SDS011;13001;51.968;5.918;2022-12-18T07:36:00;755.50;;;700.67;;
22768;SDS011;13001;51.968;5.918;2022-12-18T07:38:29;780.70;;;723.23;;
22768;SDS011;13001;51.968;5.918;2022-12-18T07:41:03;749.92;;;695.35;;
22768;SDS011;13001;51.968;5.918;2022-12-18T07:43:30;748.35;;;692.77;;
22768;SDS011;13001;51.968;5.918;2022-12-18T07:45:58;727.13;;;674.30;;
22768;SDS011;13001;51.968;5.918;2022-12-18T07:48:26;756.20;;;700.08;;
22768;SDS011;13001;51.968;5.918;2022-12-18T07:50:57;764.00;;;707.27;;
22768;SDS011;13001;51.968;5.918;2022-12-18T07:53:23;681.92;;;632.62;;
22768;SDS011;13001;51.968;5.918;2022-12-18T07:55:54;660.55;;;613.52;;
22768;SDS011;13001;51.968;5.918;2022-12-18T07:58:19;703.50;;;650.77;;
22768;SDS011;13001;51.968;5.918;2022-12-18T08:00:46;631.87;;;586.80;;
22768;SDS011;13001;51.968;5.918;2022-12-18T08:03:13;633.95;;;588.20;;
22768;SDS011;13001;51.968;5.918;2022-12-18T08:05:41;596.07;;;550.60;;
22768;SDS011;13001;51.968;5.918;2022-12-18T08:08:08;774.40;;;717.63;;
22768;SDS011;13001;51.968;5.918;2022-12-18T08:10:35;848.87;;;784.95;;
22768;SDS011;13001;51.968;5.918;2022-12-18T08:13:02;911.33;;;840.77;;
22768;SDS011;13001;51.968;5.918;2022-12-18T08:15:30;763.08;;;707.08;;
22768;SDS011;13001;51.968;5.918;2022-12-18T08:17:57;701.67;;;649.75;;
22768;SDS011;13001;51.968;5.918;2022-12-18T08:20:24;554.20;;;518.20;;
22768;SDS011;13001;51.968;5.918;2022-12-18T08:22:51;150.78;;;140.03;;
22768;SDS011;13001;51.968;5.918;2022-12-18T08:25:20;622.45;;;579.20;;
22768;SDS011;13001;51.968;5.918;2022-12-18T08:27:47;317.00;;;294.37;;
22768;SDS011;13001;51.968;5.918;2022-12-18T08:30:14;686.47;;;629.80;;
22768;SDS011;13001;51.968;5.918;2022-12-18T08:32:42;685.00;;;627.60;;
22768;SDS011;13001;51.968;5.918;2022-12-18T08:35:09;727.07;;;668.30;;
22768;SDS011;13001;51.968;5.918;2022-12-18T08:37:38;697.37;;;642.40;;
22768;SDS011;13001;51.968;5.918;2022-12-18T08:40:05;732.70;;;674.73;;
22768;SDS011;13001;51.968;5.918;2022-12-18T08:42:33;773.83;;;712.43;;
22768;SDS011;13001;51.968;5.918;2022-12-18T08:45:19;822.00;;;755.57;;
22768;SDS011;13001;51.968;5.918;2022-12-18T08:47:46;776.47;;;714.83;;
22768;SDS011;13001;51.968;5.918;2022-12-18T08:50:13;787.10;;;724.20;;
22768;SDS011;13001;51.968;5.918;2022-12-18T08:52:41;761.30;;;699.03;;
22768;SDS011;13001;51.968;5.918;2022-12-18T08:55:08;730.30;;;673.93;;
22768;SDS011;13001;51.968;5.918;2022-12-18T08:57:36;760.30;;;701.07;;
22768;SDS011;13001;51.968;5.918;2022-12-18T09:00:04;746.80;;;689.20;;
22768;SDS011;13001;51.968;5.918;2022-12-18T09:02:31;773.00;;;709.77;;
22768;SDS011;13001;51.968;5.918;2022-12-18T09:04:58;826.90;;;757.70;;
22768;SDS011;13001;51.968;5.918;2022-12-18T09:07:26;773.47;;;710.17;;
22768;SDS011;13001;51.968;5.918;2022-12-18T09:09:53;755.13;;;694.60;;
22768;SDS011;13001;51.968;5.918;2022-12-18T09:12:21;637.83;;;590.73;;
22768;SDS011;13001;51.968;5.918;2022-12-18T09:14:48;719.87;;;664.00;;
22768;SDS011;13001;51.968;5.918;2022-12-18T09:17:15;644.87;;;597.30;;
22768;SDS011;13001;51.968;5.918;2022-12-18T09:19:42;652.57;;;604.30;;
22768;SDS011;13001;51.968;5.918;2022-12-18T09:22:10;683.93;;;632.23;;
22768;SDS011;13001;51.968;5.918;2022-12-18T09:24:37;681.63;;;630.00;;
22768;SDS011;13001;51.968;5.918;2022-12-18T09:27:04;686.63;;;633.60;;
22768;SDS011;13001;51.968;5.918;2022-12-18T09:29:32;737.10;;;679.27;;
22768;SDS011;13001;51.968;5.918;2022-12-18T09:31:59;782.17;;;718.97;;
22768;SDS011;13001;51.968;5.918;2022-12-18T09:34:26;765.53;;;704.13;;
22768;SDS011;13001;51.968;5.918;2022-12-18T09:36:53;791.83;;;727.20;;
22768;SDS011;13001;51.968;5.918;2022-12-18T09:39:21;800.23;;;735.10;;
22768;SDS011;13001;51.968;5.918;2022-12-18T09:41:52;779.50;;;717.17;;
22768;SDS011;13001;51.968;5.918;2022-12-18T09:44:27;784.17;;;721.43;;
22768;SDS011;13001;51.968;5.918;2022-12-18T09:46:53;785.27;;;722.93;;
22768;SDS011;13001;51.968;5.918;2022-12-18T09:49:21;800.37;;;736.20;;
22768;SDS011;13001;51.968;5.918;2022-12-18T09:51:50;779.30;;;717.40;;
22768;SDS011;13001;51.968;5.918;2022-12-18T09:54:24;781.50;;;718.47;;
22768;SDS011;13001;51.968;5.918;2022-12-18T09:56:46;763.23;;;703.10;;
22768;SDS011;13001;51.968;5.918;2022-12-18T09:59:19;794.43;;;730.77;;
22768;SDS011;13001;51.968;5.918;2022-12-18T10:01:42;801.50;;;737.93;;
22768;SDS011;13001;51.968;5.918;2022-12-18T10:04:10;786.03;;;723.23;;
22768;SDS011;13001;51.968;5.918;2022-12-18T10:06:42;757.73;;;697.00;;
22768;SDS011;13001;51.968;5.918;2022-12-18T10:11:48;770.33;;;708.63;;
22768;SDS011;13001;51.968;5.918;2022-12-18T10:14:18;783.70;;;720.80;;
22768;SDS011;13001;51.968;5.918;2022-12-18T10:17:00;722.90;;;666.10;;
22768;SDS011;13001;51.968;5.918;2022-12-18T10:19:39;735.53;;;678.03;;
22768;SDS011;13001;51.968;5.918;2022-12-18T10:24:45;748.33;;;689.83;;
22768;SDS011;13001;51.968;5.918;2022-12-18T10:27:15;712.03;;;656.67;;
22768;SDS011;13001;51.968;5.918;2022-12-18T10:29:43;741.97;;;684.17;;
22768;SDS011;13001;51.968;5.918;2022-12-18T10:32:18;725.30;;;668.77;;
22768;SDS011;13001;51.968;5.918;2022-12-18T10:34:47;717.60;;;661.47;;
22768;SDS011;13001;51.968;5.918;2022-12-18T10:37:16;716.10;;;660.00;;
22768;SDS011;13001;51.968;5.918;2022-12-18T10:39:43;728.30;;;671.23;;
22768;SDS011;13001;51.968;5.918;2022-12-18T10:42:16;725.27;;;667.97;;
22768;SDS011;13001;51.968;5.918;2022-12-18T10:44:40;774.87;;;712.17;;
22768;SDS011;13001;51.968;5.918;2022-12-18T10:47:11;786.17;;;722.70;;
22768;SDS011;13001;51.968;5.918;2022-12-18T10:49:36;767.80;;;705.93;;
22768;SDS011;13001;51.968;5.918;2022-12-18T10:54:45;733.23;;;675.30;;
22768;SDS011;13001;51.968;5.918;2022-12-18T10:59:51;733.40;;;674.57;;
22768;SDS011;13001;51.968;5.918;2022-12-18T11:02:26;627.33;;;577.50;;
22768;SDS011;13001;51.968;5.918;2022-12-18T11:04:53;748.70;;;688.47;;
22768;SDS011;13001;51.968;5.918;2022-12-18T11:07:20;775.07;;;711.40;;
22768;SDS011;13001;51.968;5.918;2022-12-18T11:09:59;763.13;;;701.90;;
22768;SDS011;13001;51.968;5.918;2022-12-18T11:12:17;774.27;;;711.27;;
22768;SDS011;13001;51.968;5.918;2022-12-18T11:14:49;795.63;;;731.03;;
22768;SDS011;13001;51.968;5.918;2022-12-18T11:17:25;767.17;;;705.67;;
22768;SDS011;13001;51.968;5.918;2022-12-18T11:19:54;758.73;;;696.17;;
22768;SDS011;13001;51.968;5.918;2022-12-18T11:22:25;746.23;;;684.37;;
22768;SDS011;13001;51.968;5.918;2022-12-18T11:25:00;800.67;;;734.37;;
22768;SDS011;13001;51.968;5.918;2022-12-18T11:27:28;781.77;;;717.87;;
22768;SDS011;13001;51.968;5.918;2022-12-18T11:30:10;809.83;;;743.20;;
22768;SDS011;13001;51.968;5.918;2022-12-18T11:32:37;804.30;;;737.90;;
22768;SDS011;13001;51.968;5.918;2022-12-18T11:35:17;800.97;;;734.70;;
22768;SDS011;13001;51.968;5.918;2022-12-18T11:37:46;828.97;;;759.97;;
22768;SDS011;13001;51.968;5.918;2022-12-18T11:40:17;773.80;;;709.90;;
22768;SDS011;13001;51.968;5.918;2022-12-18T11:42:46;797.30;;;731.87;;
22768;SDS011;13001;51.968;5.918;2022-12-18T11:47:48;826.53;;;758.37;;
22768;SDS011;13001;51.968;5.918;2022-12-18T11:50:23;806.73;;;741.07;;
22768;SDS011;13001;51.968;5.918;2022-12-18T11:52:42;779.80;;;717.20;;
22768;SDS011;13001;51.968;5.918;2022-12-18T11:55:11;797.53;;;731.13;;
22768;SDS011;13001;51.968;5.918;2022-12-18T12:00:17;747.23;;;688.43;;
22768;SDS011;13001;51.968;5.918;2022-12-18T12:02:56;816.10;;;748.07;;
22768;SDS011;13001;51.968;5.918;2022-12-18T12:07:52;781.77;;;717.30;;
22768;SDS011;13001;51.968;5.918;2022-12-18T12:18:21;776.27;;;714.63;;
22768;SDS011;13001;51.968;5.918;2022-12-18T12:20:50;780.63;;;718.53;;
22768;SDS011;13001;51.968;5.918;2022-12-18T12:26:11;819.10;;;753.67;;
22768;SDS011;13001;51.968;5.918;2022-12-18T12:31:36;818.47;;;752.53;;
22768;SDS011;13001;51.968;5.918;2022-12-18T12:34:05;832.47;;;764.50;;
22768;SDS011;13001;51.968;5.918;2022-12-18T12:39:16;804.90;;;740.80;;
22768;SDS011;13001;51.968;5.918;2022-12-18T12:41:44;764.67;;;704.37;;
22768;SDS011;13001;51.968;5.918;2022-12-18T12:44:38;788.07;;;724.27;;
22768;SDS011;13001;51.968;5.918;2022-12-18T12:47:01;780.53;;;719.47;;
22768;SDS011;13001;51.968;5.918;2022-12-18T12:49:30;810.20;;;742.73;;
22768;SDS011;13001;51.968;5.918;2022-12-18T12:52:00;762.70;;;703.33;;
22768;SDS011;13001;51.968;5.918;2022-12-18T12:54:27;827.97;;;760.07;;
22768;SDS011;13001;51.968;5.918;2022-12-18T12:59:33;755.73;;;697.23;;
22768;SDS011;13001;51.968;5.918;2022-12-18T13:02:00;771.83;;;712.47;;
22768;SDS011;13001;51.968;5.918;2022-12-18T13:04:33;783.47;;;722.57;;
22768;SDS011;13001;51.968;5.918;2022-12-18T13:07:06;751.00;;;692.93;;
22768;SDS011;13001;51.968;5.918;2022-12-18T13:09:34;723.33;;;667.37;;
22768;SDS011;13001;51.968;5.918;2022-12-18T13:12:03;757.67;;;699.13;;
22768;SDS011;13001;51.968;5.918;2022-12-18T13:14:49;712.33;;;658.57;;
22768;SDS011;13001;51.968;5.918;2022-12-18T13:19:51;703.13;;;649.03;;
22768;SDS011;13001;51.968;5.918;2022-12-18T13:22:24;718.53;;;663.13;;
22768;SDS011;13001;51.968;5.918;2022-12-18T13:24:48;721.77;;;666.63;;
22768;SDS011;13001;51.968;5.918;2022-12-18T13:30:01;774.20;;;714.03;;
22768;SDS011;13001;51.968;5.918;2022-12-18T13:32:28;736.47;;;680.87;;
22768;SDS011;13001;51.968;5.918;2022-12-18T13:37:42;696.23;;;642.93;;
22768;SDS011;13001;51.968;5.918;2022-12-18T13:42:50;683.33;;;630.87;;
22768;SDS011;13001;51.968;5.918;2022-12-18T13:45:37;694.73;;;641.97;;
22768;SDS011;13001;51.968;5.918;2022-12-18T13:48:05;700.27;;;646.80;;
22768;SDS011;13001;51.968;5.918;2022-12-18T13:50:33;703.63;;;651.27;;
22768;SDS011;13001;51.968;5.918;2022-12-18T13:53:00;717.77;;;664.07;;
22768;SDS011;13001;51.968;5.918;2022-12-18T13:55:30;726.37;;;669.87;;
22768;SDS011;13001;51.968;5.918;2022-12-18T13:58:03;681.43;;;630.43;;
22768;SDS011;13001;51.968;5.918;2022-12-18T14:00:31;696.30;;;644.23;;
22768;SDS011;13001;51.968;5.918;2022-12-18T14:02:59;710.40;;;656.80;;
22768;SDS011;13001;51.968;5.918;2022-12-18T14:05:31;712.50;;;657.60;;
22768;SDS011;13001;51.968;5.918;2022-12-18T14:08:05;708.47;;;655.37;;
22768;SDS011;13001;51.968;5.918;2022-12-18T14:10:33;667.17;;;616.30;;
22768;SDS011;13001;51.968;5.918;2022-12-18T14:13:05;700.13;;;647.97;;
22768;SDS011;13001;51.968;5.918;2022-12-18T14:15:35;653.83;;;604.50;;
22768;SDS011;13001;51.968;5.918;2022-12-18T14:18:09;655.57;;;606.97;;
22768;SDS011;13001;51.968;5.918;2022-12-18T14:20:32;657.17;;;608.00;;
22768;SDS011;13001;51.968;5.918;2022-12-18T14:23:00;660.53;;;610.80;;
22768;SDS011;13001;51.968;5.918;2022-12-18T14:25:28;677.77;;;625.07;;
22768;SDS011;13001;51.968;5.918;2022-12-18T14:28:04;677.37;;;626.33;;
22768;SDS011;13001;51.968;5.918;2022-12-18T14:30:31;636.97;;;589.90;;
22768;SDS011;13001;51.968;5.918;2022-12-18T14:33:09;705.90;;;651.33;;
22768;SDS011;13001;51.968;5.918;2022-12-18T14:35:31;641.23;;;592.80;;
22768;SDS011;13001;51.968;5.918;2022-12-18T14:40:39;648.27;;;599.20;;
22768;SDS011;13001;51.968;5.918;2022-12-18T14:43:08;671.77;;;620.63;;
22768;SDS011;13001;51.968;5.918;2022-12-18T14:45:45;655.43;;;605.17;;
22768;SDS011;13001;51.968;5.918;2022-12-18T14:48:22;654.80;;;605.43;;
22768;SDS011;13001;51.968;5.918;2022-12-18T14:50:57;663.23;;;613.30;;
22768;SDS011;13001;51.968;5.918;2022-12-18T14:53:34;648.23;;;598.80;;
22768;SDS011;13001;51.968;5.918;2022-12-18T14:56:02;659.67;;;610.43;;
22768;SDS011;13001;51.968;5.918;2022-12-18T14:58:29;695.60;;;642.97;;
22768;SDS011;13001;51.968;5.918;2022-12-18T15:00:57;709.03;;;656.40;;